createdAt,value
2018-12-07T00:01:29.516Z,52.70
2018-12-07T00:03:58.162Z,52.90
2018-12-07T00:06:26.842Z,52.70
2018-12-07T00:08:55.531Z,52.90
2018-12-07T00:11:23.993Z,52.70
2018-12-07T00:13:52.562Z,52.90
2018-12-07T00:16:20.931Z,52.90
2018-12-07T00:18:49.314Z,52.60
2018-12-07T00:21:17.698Z,52.60
2018-12-07T00:23:46.132Z,52.70
2018-12-07T00:26:14.552Z,52.60
2018-12-07T00:28:42.995Z,52.70
2018-12-07T00:31:11.399Z,52.90
2018-12-07T00:33:40.139Z,52.40
2018-12-07T00:36:08.825Z,52.60
2018-12-07T00:38:37.239Z,52.70
2018-12-07T00:41:05.700Z,53.20
2018-12-07T00:43:33.982Z,52.40
2018-12-07T00:46:02.354Z,52.40
2018-12-07T00:48:30.764Z,52.40
2018-12-07T00:50:59.399Z,52.40
2018-12-07T00:53:28.293Z,52.60
2018-12-07T00:55:56.696Z,52.70
2018-12-07T00:58:25.047Z,52.40
2018-12-07T01:00:53.445Z,52.70
2018-12-07T01:03:21.878Z,52.90
2018-12-07T01:05:50.285Z,52.70
2018-12-07T01:08:18.737Z,52.30
2018-12-07T01:10:47.132Z,52.60
2018-12-07T01:13:15.489Z,52.40
2018-12-07T01:15:43.889Z,52.60
2018-12-07T01:18:12.261Z,52.60
2018-12-07T01:20:41.286Z,52.90
2018-12-07T01:23:09.867Z,52.90
2018-12-07T01:25:38.548Z,52.70
2018-12-07T01:28:06.950Z,52.70
2018-12-07T01:30:35.309Z,52.70
2018-12-07T01:33:04.083Z,52.70
2018-12-07T01:35:32.497Z,52.90
2018-12-07T01:38:00.862Z,52.90
2018-12-07T01:40:29.261Z,52.90
2018-12-07T01:42:58.127Z,52.90
2018-12-07T01:45:26.573Z,52.90
2018-12-07T01:47:54.971Z,52.90
2018-12-07T01:50:23.658Z,53.00
2018-12-07T01:52:52.026Z,53.00
2018-12-07T01:55:20.722Z,53.00
2018-12-07T01:57:49.379Z,53.20
2018-12-07T02:00:17.766Z,53.30
2018-12-07T02:02:46.171Z,53.30
2018-12-07T02:05:14.537Z,53.20
2018-12-07T02:07:42.929Z,53.20
2018-12-07T02:10:11.356Z,52.90
2018-12-07T02:12:39.863Z,53.20
2018-12-07T02:15:08.214Z,53.00
2018-12-07T02:17:36.636Z,53.00
2018-12-07T02:20:05.143Z,53.00
2018-12-07T02:22:33.524Z,53.20
2018-12-07T02:25:02.188Z,53.60
2018-12-07T02:27:32.491Z,53.30
2018-12-07T02:30:01.005Z,53.00
2018-12-07T02:32:29.528Z,53.30
2018-12-07T02:34:57.820Z,53.30
2018-12-07T02:37:26.255Z,53.30
2018-12-07T02:39:54.853Z,53.50
2018-12-07T02:42:23.287Z,53.60
2018-12-07T02:44:51.743Z,53.90
2018-12-07T02:47:20.199Z,53.80
2018-12-07T02:49:48.833Z,53.80
2018-12-07T02:52:17.522Z,53.80
2018-12-07T02:54:45.890Z,54.10
2018-12-07T02:57:14.258Z,54.20
2018-12-07T02:59:42.653Z,54.20
2018-12-07T03:02:11.348Z,54.50
2018-12-07T03:04:39.786Z,54.60
2018-12-07T03:07:08.205Z,54.90
2018-12-07T03:09:36.623Z,54.90
2018-12-07T03:12:05.261Z,54.80
2018-12-07T03:14:33.945Z,54.80
2018-12-07T03:17:02.358Z,55.10
2018-12-07T03:19:30.754Z,54.90
2018-12-07T03:21:59.261Z,54.90
2018-12-07T03:24:27.983Z,55.10
2018-12-07T03:26:56.408Z,55.10
2018-12-07T03:29:24.866Z,55.10
2018-12-07T03:31:53.275Z,54.90
2018-12-07T03:34:21.625Z,55.10
2018-12-07T03:36:50.042Z,55.20
2018-12-07T03:39:18.489Z,55.20
2018-12-07T03:41:46.861Z,55.10
2018-12-07T03:44:15.312Z,55.10
2018-12-07T03:46:44.402Z,55.10
2018-12-07T03:49:12.919Z,55.10
2018-12-07T03:51:41.297Z,55.40
2018-12-07T03:54:10.661Z,55.10
2018-12-07T03:56:39.222Z,55.50
2018-12-07T03:59:07.597Z,55.40
2018-12-07T04:01:36.007Z,55.40
2018-12-07T04:04:04.586Z,55.20
2018-12-07T04:06:32.983Z,55.40
2018-12-07T04:09:01.580Z,55.50
2018-12-07T04:11:29.982Z,55.40
2018-12-07T04:13:58.388Z,55.40
2018-12-07T04:16:26.790Z,55.40
2018-12-07T04:18:55.224Z,55.50
2018-12-07T04:21:23.621Z,55.50
2018-12-07T04:23:52.026Z,55.50
2018-12-07T04:26:20.498Z,55.70
2018-12-07T04:28:48.902Z,55.70
2018-12-07T04:31:17.380Z,55.70
2018-12-07T04:33:45.864Z,55.80
2018-12-07T04:36:14.535Z,56.00
2018-12-07T04:38:43.052Z,55.70
2018-12-07T04:41:11.430Z,55.70
2018-12-07T04:43:39.831Z,56.30
2018-12-07T04:46:08.206Z,56.10
2018-12-07T04:48:36.832Z,56.10
2018-12-07T04:51:05.325Z,56.30
2018-12-07T04:53:33.934Z,56.30
2018-12-07T04:56:02.636Z,56.30
2018-12-07T04:58:31.377Z,56.40
2018-12-07T05:00:59.996Z,56.60
2018-12-07T05:03:28.962Z,56.60
2018-12-07T05:05:57.697Z,56.90
2018-12-07T05:08:26.429Z,56.30
2018-12-07T05:10:55.098Z,56.60
2018-12-07T05:13:23.502Z,56.60
2018-12-07T05:15:51.997Z,56.70
2018-12-07T05:18:20.679Z,56.70
2018-12-07T05:20:49.165Z,57.00
2018-12-07T05:23:17.730Z,56.90
2018-12-07T05:25:46.386Z,57.00
2018-12-07T05:28:15.066Z,57.20
2018-12-07T05:30:43.677Z,57.30
2018-12-07T05:33:12.176Z,57.30
2018-12-07T05:35:40.790Z,57.30
2018-12-07T05:38:09.274Z,57.60
2018-12-07T05:40:38.174Z,57.60
2018-12-07T05:43:06.665Z,57.60
2018-12-07T05:45:35.324Z,57.60
2018-12-07T05:48:03.835Z,57.70
2018-12-07T05:50:32.224Z,57.70
2018-12-07T05:53:00.827Z,57.60
2018-12-07T05:55:29.400Z,57.70
2018-12-07T05:57:57.871Z,57.70
2018-12-07T06:00:26.469Z,57.60
2018-12-07T06:02:55.391Z,57.70
2018-12-07T06:05:23.831Z,57.70
2018-12-07T06:07:52.294Z,57.70
2018-12-07T06:10:20.775Z,57.90
2018-12-07T06:12:49.361Z,57.70
2018-12-07T06:15:17.979Z,57.70
2018-12-07T06:17:46.679Z,57.90
2018-12-07T06:20:15.337Z,57.70
2018-12-07T06:22:43.867Z,57.90
2018-12-07T06:25:12.354Z,57.90
2018-12-07T06:27:41.099Z,57.90
2018-12-07T06:30:09.721Z,58.00
2018-12-07T06:32:38.058Z,58.00
2018-12-07T06:35:06.494Z,58.00
2018-12-07T06:37:34.891Z,58.00
2018-12-07T06:40:04.261Z,58.00
2018-12-07T06:42:32.710Z,58.00
2018-12-07T06:45:01.133Z,58.30
2018-12-07T06:47:29.746Z,58.50
2018-12-07T06:49:58.941Z,58.30
2018-12-07T06:52:27.623Z,58.50
2018-12-07T06:54:56.037Z,58.60
2018-12-07T06:57:24.518Z,58.60
2018-12-07T06:59:53.111Z,58.60
2018-12-07T07:02:21.660Z,58.60
2018-12-07T07:04:50.038Z,60.30
2018-12-07T07:07:18.422Z,60.10
2018-12-07T07:09:47.066Z,59.80
2018-12-07T07:12:15.525Z,60.80
2018-12-07T07:14:44.153Z,60.40
2018-12-07T07:17:12.894Z,60.00
2018-12-07T07:19:41.688Z,60.40
2018-12-07T07:22:10.157Z,60.10
2018-12-07T07:24:38.732Z,60.10
2018-12-07T07:27:07.349Z,60.30
2018-12-07T07:29:35.873Z,60.10
2018-12-07T07:32:04.296Z,60.30
2018-12-07T07:34:32.781Z,60.80
2018-12-07T07:37:01.215Z,60.80
2018-12-07T07:39:30.738Z,60.60
2018-12-07T07:41:59.149Z,60.80
2018-12-07T07:44:27.580Z,60.80
2018-12-07T07:46:56.223Z,60.60
2018-12-07T07:49:24.897Z,60.40
2018-12-07T07:51:53.519Z,60.60
2018-12-07T07:54:21.915Z,61.00
2018-12-07T07:56:50.347Z,60.80
2018-12-07T07:59:18.821Z,60.80
2018-12-07T08:01:47.644Z,61.20
2018-12-07T08:04:16.337Z,61.00
2018-12-07T08:06:44.752Z,61.20
2018-12-07T08:09:13.147Z,61.30
2018-12-07T08:11:41.594Z,61.20
2018-12-07T08:14:10.095Z,61.70
2018-12-07T08:16:38.538Z,61.30
2018-12-07T08:19:07.011Z,61.00
2018-12-07T08:21:35.484Z,61.30
2018-12-07T08:24:04.031Z,61.50
2018-12-07T08:26:32.434Z,61.70
2018-12-07T08:29:00.970Z,62.20
2018-12-07T08:31:29.597Z,62.20
2018-12-07T08:33:58.136Z,62.20
2018-12-07T08:36:26.847Z,62.20
2018-12-07T08:38:55.486Z,61.70
2018-12-07T08:41:24.130Z,62.10
2018-12-07T08:43:52.637Z,61.90
2018-12-07T08:46:21.315Z,62.60
2018-12-07T08:48:50.119Z,61.70
2018-12-07T08:51:18.664Z,61.70
2018-12-07T08:53:47.280Z,61.70
2018-12-07T08:56:15.699Z,61.70
2018-12-07T08:58:44.421Z,61.70
2018-12-07T09:01:13.048Z,62.10
2018-12-07T09:03:41.459Z,62.20
2018-12-07T09:06:09.855Z,62.10
2018-12-07T09:08:38.330Z,61.90
2018-12-07T09:11:07.900Z,61.50
2018-12-07T09:13:36.514Z,62.40
2018-12-07T09:16:05.829Z,62.40
2018-12-07T09:18:34.881Z,61.70
2018-12-07T09:21:03.471Z,61.50
2018-12-07T09:23:31.917Z,62.10
2018-12-07T09:26:00.683Z,61.70
2018-12-07T09:28:29.204Z,61.30
2018-12-07T09:30:57.646Z,61.30
2018-12-07T09:33:26.192Z,61.70
2018-12-07T09:35:54.784Z,61.50
2018-12-07T09:38:23.335Z,61.70
2018-12-07T09:40:51.863Z,62.20
2018-12-07T09:43:21.092Z,61.30
2018-12-07T09:45:49.736Z,61.90
2018-12-07T09:48:18.364Z,62.10
2018-12-07T09:50:46.790Z,62.20
2018-12-07T09:53:15.368Z,62.10
2018-12-07T09:55:43.982Z,61.50
2018-12-07T09:58:12.519Z,61.70
2018-12-07T10:00:41.028Z,62.20
2018-12-07T10:03:09.578Z,62.60
2018-12-07T10:05:38.064Z,62.10
2018-12-07T10:08:06.494Z,61.70
2018-12-07T10:10:34.956Z,61.50
2018-12-07T10:13:07.956Z,62.60
2018-12-07T10:15:33.750Z,62.40
2018-12-07T10:18:02.837Z,62.10
2018-12-07T10:20:31.426Z,62.80
2018-12-07T10:22:59.951Z,62.40
2018-12-07T10:25:28.562Z,62.20
2018-12-07T10:28:00.073Z,62.10
2018-12-07T10:30:28.648Z,61.30
2018-12-07T10:32:57.388Z,61.00
2018-12-07T10:35:25.764Z,61.30
2018-12-07T10:37:54.172Z,60.60
2018-12-07T10:40:23.496Z,61.00
2018-12-07T10:42:52.114Z,61.30
2018-12-07T10:45:20.826Z,60.80
2018-12-07T10:47:50.469Z,61.00
2018-12-07T10:50:19.315Z,60.40
2018-12-07T10:52:48.330Z,60.80
2018-12-07T10:55:17.019Z,60.40
2018-12-07T10:57:45.527Z,60.80
2018-12-07T11:00:22.612Z,60.80
2018-12-07T11:02:52.858Z,60.60
2018-12-07T11:05:26.894Z,59.80
2018-12-07T11:08:01.105Z,60.30
2018-12-07T11:10:35.694Z,60.10
2018-12-07T11:13:10.580Z,59.80
2018-12-07T11:15:44.912Z,60.00
2018-12-07T11:18:19.316Z,60.00
2018-12-07T11:20:53.531Z,60.40
2018-12-07T11:23:24.140Z,59.70
2018-12-07T11:25:58.455Z,59.80
2018-12-07T11:28:32.727Z,60.10
2018-12-07T11:34:16.375Z,58.90
2018-12-07T11:36:45.701Z,58.50
2018-12-07T11:39:14.301Z,58.50
2018-12-07T11:41:42.945Z,58.00
2018-12-07T11:44:11.452Z,57.90
2018-12-07T11:46:40.057Z,57.90
2018-12-07T11:49:08.512Z,58.20
2018-12-07T11:51:37.975Z,57.90
2018-12-07T11:54:07.026Z,58.00
2018-12-07T11:56:36.566Z,58.00
2018-12-07T11:59:05.227Z,57.70
2018-12-07T12:01:34.182Z,57.70
2018-12-07T12:04:02.613Z,58.20
2018-12-07T12:06:31.023Z,58.20
2018-12-07T12:08:59.463Z,57.90
2018-12-07T12:11:27.820Z,57.70
2018-12-07T12:13:56.286Z,57.60
2018-12-07T12:16:24.739Z,57.70
2018-12-07T12:18:53.337Z,57.90
2018-12-07T12:21:22.372Z,58.90
2018-12-07T12:23:53.793Z,58.30
2018-12-07T12:26:21.521Z,57.70
2018-12-07T12:28:50.656Z,57.90
2018-12-07T12:31:19.302Z,57.70
2018-12-07T12:33:47.684Z,57.70
2018-12-07T12:36:17.262Z,58.00
2018-12-07T12:38:46.907Z,58.30
2018-12-07T12:41:15.656Z,58.80
2018-12-07T12:43:44.584Z,58.20
2018-12-07T12:46:13.253Z,59.40
2018-12-07T12:48:41.772Z,59.10
2018-12-07T12:51:10.204Z,58.60
2018-12-07T12:53:38.869Z,58.30
2018-12-07T12:56:07.844Z,58.00
2018-12-07T12:58:36.554Z,58.60
2018-12-07T13:01:05.247Z,58.30
2018-12-07T13:03:33.788Z,58.90
2018-12-07T13:06:02.238Z,59.80
2018-12-07T13:08:30.962Z,59.10
2018-12-07T13:10:59.512Z,58.60
2018-12-07T13:13:28.380Z,58.90
2018-12-07T13:15:57.078Z,59.50
2018-12-07T13:18:25.518Z,59.40
2018-12-07T13:20:54.291Z,58.80
2018-12-07T13:23:22.813Z,58.80
2018-12-07T13:25:51.545Z,60.00
2018-12-07T13:28:20.263Z,60.10
2018-12-07T13:30:49.140Z,58.90
2018-12-07T13:33:17.830Z,58.80
2018-12-07T13:35:46.794Z,58.90
2018-12-07T13:38:15.265Z,58.90
2018-12-07T13:40:43.760Z,59.20
2018-12-07T13:43:13.392Z,59.70
2018-12-07T13:45:42.777Z,59.50
2018-12-07T13:48:11.607Z,59.70
2018-12-07T13:50:41.419Z,59.50
2018-12-07T13:53:10.636Z,60.00
2018-12-07T13:55:39.696Z,60.30
2018-12-07T13:58:08.229Z,60.30
2018-12-07T14:00:37.133Z,60.30
2018-12-07T14:03:07.003Z,60.30
2018-12-07T14:05:36.032Z,60.60
2018-12-07T14:08:04.687Z,60.40
2018-12-07T14:10:33.292Z,60.40
2018-12-07T14:15:37.911Z,60.30
2018-12-07T14:18:06.989Z,60.30
2018-12-07T14:20:35.439Z,60.30
2018-12-07T14:23:03.911Z,60.10
2018-12-07T14:25:33.010Z,60.10
2018-12-07T14:28:01.608Z,60.40
2018-12-07T14:30:30.584Z,60.10
2018-12-07T14:32:59.922Z,60.60
2018-12-07T14:35:28.857Z,60.80
2018-12-07T14:37:58.146Z,60.40
2018-12-07T14:40:27.071Z,60.60
2018-12-07T14:42:55.836Z,61.20
2018-12-07T14:45:25.080Z,60.80
2018-12-07T14:47:53.705Z,61.20
2018-12-07T14:50:22.761Z,61.00
2018-12-07T14:52:51.470Z,60.80
2018-12-07T14:55:19.938Z,60.80
2018-12-07T14:57:48.666Z,60.80
2018-12-07T15:00:17.417Z,60.60
2018-12-07T15:02:46.233Z,61.20
2018-12-07T15:05:15.007Z,61.20
2018-12-07T15:07:43.612Z,61.30
2018-12-07T15:10:12.102Z,61.30
2018-12-07T15:12:40.567Z,61.30
2018-12-07T15:15:09.240Z,61.30
2018-12-07T15:17:37.850Z,61.50
2018-12-07T15:20:07.224Z,61.50
2018-12-07T15:22:35.888Z,61.50
2018-12-07T15:25:06.025Z,61.50
2018-12-07T15:27:34.592Z,61.50
2018-12-07T15:30:04.344Z,61.50
2018-12-07T15:32:32.820Z,61.50
2018-12-07T15:35:01.314Z,61.50
2018-12-07T15:37:29.838Z,61.70
2018-12-07T15:39:58.658Z,61.50
2018-12-07T15:42:27.409Z,61.50
2018-12-07T15:44:56.043Z,61.50
2018-12-07T15:47:24.632Z,61.30
2018-12-07T15:49:53.210Z,61.30
2018-12-07T15:52:21.928Z,61.30
2018-12-07T15:54:50.456Z,61.30
2018-12-07T15:57:18.921Z,61.30
2018-12-07T15:59:47.523Z,61.30
2018-12-07T16:02:16.503Z,61.30
2018-12-07T16:04:45.031Z,61.00
2018-12-07T16:07:14.138Z,61.20
2018-12-07T16:09:42.864Z,61.00
2018-12-07T16:12:11.439Z,61.00
2018-12-07T16:14:40.010Z,61.00
2018-12-07T16:17:08.516Z,61.00
2018-12-07T16:19:37.460Z,60.80
2018-12-07T16:22:06.087Z,60.80
2018-12-07T16:24:34.646Z,60.80
2018-12-07T16:27:03.199Z,60.60
2018-12-07T16:29:32.098Z,60.40
2018-12-07T16:32:00.684Z,60.40
2018-12-07T16:34:29.517Z,60.40
2018-12-07T16:36:57.946Z,60.30
2018-12-07T16:39:26.749Z,60.30
2018-12-07T16:44:30.426Z,60.40
2018-12-07T16:46:59.210Z,60.30
2018-12-07T16:49:27.992Z,60.40
2018-12-07T16:51:56.626Z,60.10
2018-12-07T16:54:25.242Z,60.00
2018-12-07T16:56:53.898Z,60.00
2018-12-07T16:59:22.621Z,60.10
2018-12-07T17:01:51.069Z,60.00
2018-12-07T17:04:19.697Z,60.00
2018-12-07T17:06:48.273Z,60.00
2018-12-07T17:09:16.819Z,60.00
2018-12-07T17:11:45.835Z,60.00
2018-12-07T17:14:14.528Z,60.00
2018-12-07T17:16:43.061Z,60.00
2018-12-07T17:19:11.522Z,60.00
2018-12-07T17:21:40.150Z,59.80
2018-12-07T17:24:08.647Z,60.10
2018-12-07T17:26:37.046Z,59.80
2018-12-07T17:29:05.659Z,60.00
2018-12-07T17:31:34.727Z,59.80
2018-12-07T17:34:03.707Z,60.00
2018-12-07T17:36:32.405Z,60.00
2018-12-07T17:39:01.044Z,59.80
2018-12-07T17:41:29.636Z,60.00
2018-12-07T17:43:58.129Z,59.80
2018-12-07T17:46:26.967Z,59.80
2018-12-07T17:48:55.644Z,59.80
2018-12-07T17:51:24.210Z,60.10
2018-12-07T17:53:52.734Z,61.00
2018-12-07T17:56:21.316Z,60.40
2018-12-07T17:58:49.912Z,60.40
2018-12-07T18:01:18.484Z,60.40
2018-12-07T18:03:46.878Z,60.40
2018-12-07T18:06:15.278Z,60.60
2018-12-07T18:08:43.778Z,60.30
2018-12-07T18:11:12.207Z,60.40
2018-12-07T18:13:41.820Z,60.30
2018-12-07T18:16:10.762Z,62.10
2018-12-07T18:18:39.997Z,62.80
2018-12-07T18:21:08.440Z,62.40
2018-12-07T18:23:37.236Z,61.70
2018-12-07T18:26:05.978Z,61.20
2018-12-07T18:28:35.277Z,61.00
2018-12-07T18:31:04.045Z,61.00
2018-12-07T18:33:32.675Z,60.80
2018-12-07T18:36:01.270Z,60.80
2018-12-07T18:38:29.757Z,60.60
2018-12-07T18:40:58.324Z,60.40
2018-12-07T18:43:27.136Z,60.40
2018-12-07T18:45:55.613Z,60.30
2018-12-07T18:48:24.099Z,61.20
2018-12-07T18:50:52.551Z,61.20
2018-12-07T18:53:21.202Z,60.60
2018-12-07T18:55:49.632Z,60.60
2018-12-07T18:58:18.189Z,60.60
2018-12-07T19:00:46.917Z,65.70
2018-12-07T19:03:15.732Z,65.10
2018-12-07T19:05:47.461Z,63.90
2018-12-07T19:08:16.261Z,63.00
2018-12-07T19:10:45.065Z,61.20
2018-12-07T19:13:13.650Z,60.10
2018-12-07T19:15:42.111Z,58.90
2018-12-07T19:18:10.766Z,58.00
2018-12-07T19:20:39.461Z,57.20
2018-12-07T19:23:08.682Z,56.60
2018-12-07T19:25:37.381Z,55.80
2018-12-07T19:28:05.883Z,55.50
2018-12-07T19:30:34.350Z,54.90
2018-12-07T19:33:03.045Z,54.30
2018-12-07T19:35:31.889Z,53.80
2018-12-07T19:38:00.786Z,53.50
2018-12-07T19:40:29.851Z,53.30
2018-12-07T19:42:58.484Z,53.00
2018-12-07T19:45:27.063Z,52.90
2018-12-07T19:47:55.882Z,52.60
2018-12-07T19:50:24.647Z,52.40
2018-12-07T19:52:53.535Z,52.00
2018-12-07T19:55:22.071Z,51.80
2018-12-07T19:57:50.637Z,51.50
2018-12-07T20:00:19.295Z,51.40
2018-12-07T20:02:48.118Z,51.10
2018-12-07T20:05:18.579Z,50.90
2018-12-07T20:07:47.679Z,50.90
2018-12-07T20:10:16.570Z,50.80
2018-12-07T20:12:45.386Z,50.90
2018-12-07T20:15:13.947Z,51.20
2018-12-07T20:17:42.381Z,51.80
2018-12-07T20:20:10.850Z,51.50
2018-12-07T20:22:39.397Z,51.20
2018-12-07T20:25:08.389Z,51.20
2018-12-07T20:27:38.028Z,51.10
2018-12-07T20:30:07.796Z,50.80
2018-12-07T20:32:37.227Z,50.50
2018-12-07T20:35:05.845Z,50.40
2018-12-07T20:37:34.586Z,50.40
2018-12-07T20:40:04.689Z,50.50
2018-12-07T20:42:33.416Z,50.80
2018-12-07T20:45:02.119Z,51.20
2018-12-07T20:47:30.959Z,51.70
2018-12-07T20:49:59.641Z,52.00
2018-12-07T20:52:28.510Z,52.40
2018-12-07T20:54:57.479Z,52.70
2018-12-07T20:57:26.331Z,53.20
2018-12-07T20:59:54.963Z,53.90
2018-12-07T21:02:23.542Z,53.90
2018-12-07T21:04:52.298Z,53.50
2018-12-07T21:07:48.359Z,53.20
2018-12-07T21:10:42.169Z,52.70
2018-12-07T21:13:35.516Z,52.30
2018-12-07T21:16:35.092Z,52.10
2018-12-07T21:19:04.403Z,51.80
2018-12-07T21:21:33.024Z,51.70
2018-12-07T21:24:01.868Z,51.40
2018-12-07T21:26:30.660Z,51.10
2018-12-07T21:28:59.178Z,51.20
2018-12-07T21:31:29.540Z,51.20
2018-12-07T21:34:01.823Z,51.10
2018-12-07T21:36:36.845Z,50.90
2018-12-07T21:39:14.206Z,50.90
2018-12-07T21:41:42.829Z,50.80
2018-12-07T21:44:11.408Z,50.70
2018-12-07T21:46:39.974Z,50.50
2018-12-07T21:49:08.745Z,50.80
2018-12-07T21:51:49.319Z,50.50
2018-12-07T21:54:18.022Z,50.20
2018-12-07T21:56:46.853Z,49.90
2018-12-07T21:59:15.571Z,50.40
2018-12-07T22:01:44.225Z,50.20
2018-12-07T22:04:13.025Z,49.90
2018-12-07T22:06:41.942Z,50.40
2018-12-07T22:09:10.652Z,50.10
2018-12-07T22:11:39.355Z,49.50
2018-12-07T22:14:07.762Z,49.80
2018-12-07T22:16:36.166Z,49.60
2018-12-07T22:19:04.649Z,49.50
2018-12-07T22:21:33.240Z,49.20
2018-12-07T22:24:01.756Z,49.00
2018-12-07T22:26:30.573Z,49.00
2018-12-07T22:28:59.461Z,49.20
2018-12-07T22:31:28.354Z,49.20
2018-12-07T22:33:57.070Z,49.00
2018-12-07T22:36:25.600Z,49.20
2018-12-07T22:38:54.726Z,48.90
2018-12-07T22:41:23.535Z,48.90
2018-12-07T22:43:52.177Z,48.90
2018-12-07T22:46:20.675Z,48.60
2018-12-07T22:48:49.152Z,48.60
2018-12-07T22:51:19.536Z,48.60
2018-12-07T22:53:48.135Z,48.60
2018-12-07T22:56:17.270Z,48.30
2018-12-07T22:58:45.683Z,48.10
2018-12-07T23:01:14.839Z,48.00
2018-12-07T23:03:43.914Z,48.10
2018-12-07T23:06:12.683Z,48.40
2018-12-07T23:08:41.404Z,48.10
2018-12-07T23:11:09.837Z,47.80
2018-12-07T23:13:38.256Z,47.80
2018-12-07T23:16:06.935Z,48.00
2018-12-07T23:18:36.438Z,47.80
2018-12-07T23:21:04.864Z,47.70
2018-12-07T23:23:33.503Z,47.70
2018-12-07T23:26:01.938Z,47.50
2018-12-07T23:28:30.341Z,47.50
2018-12-07T23:30:59.043Z,47.50
2018-12-07T23:33:27.453Z,47.40
2018-12-07T23:35:55.863Z,47.30
2018-12-07T23:38:24.242Z,47.10
2018-12-07T23:40:52.670Z,47.40
2018-12-07T23:43:21.270Z,47.70
2018-12-07T23:45:49.703Z,47.80
2018-12-07T23:48:18.138Z,48.40
2018-12-07T23:50:46.522Z,48.70
2018-12-07T23:53:14.928Z,49.30
2018-12-07T23:55:45.242Z,49.30
2018-12-07T23:58:13.864Z,49.80
